Terminal Aerodrome Forecast
Issued by NWS Caribou, ME

Home | Current Version | Previous Version | Text Only | Print | Product List | Glossary On
Versions: 1 2 3 4 5 6 7 8 9 10 11 12 13 14 15 16 17 18
000
FTUS41 KCAR 261728
TAFBGR
TAF
KBGR 261728Z 2618/2718 34011KT P6SM SCT030 OVC050
     FM261930 36011KT 6SM -SN OVC030
     FM262030 36011KT 3SM -SN OVC015
     FM262300 02014G25KT 1/4SM +SN VV003
     FM270400 02017G27KT 2SM -SN VV005
     FM271000 36015G25KT P6SM OVC030
     FM271200 33013G23KT P6SM BKN040=

USA.gov is the U.S. government's official web portal to all federal, state and local government web resources and services.